createdAt,value
2018-10-11T00:01:10.809Z,96757.00
2018-10-11T00:03:40.607Z,96752.00
2018-10-11T00:06:10.413Z,96749.00
2018-10-11T00:08:40.261Z,96753.00
2018-10-11T00:11:10.318Z,96756.00
2018-10-11T00:13:40.095Z,96745.00
2018-10-11T00:16:09.770Z,96745.00
2018-10-11T00:18:39.723Z,96746.00
2018-10-11T00:21:09.457Z,96751.00
2018-10-11T00:24:07.978Z,96742.00
2018-10-11T00:26:38.202Z,96736.00
2018-10-11T00:29:08.018Z,96739.00
2018-10-11T00:31:37.610Z,96739.00
2018-10-11T00:34:07.965Z,96741.00
2018-10-11T00:36:37.836Z,96738.00
2018-10-11T00:39:09.239Z,96740.00
2018-10-11T00:41:39.959Z,96730.00
2018-10-11T00:44:09.769Z,96734.00
2018-10-11T00:46:39.443Z,96731.00
2018-10-11T00:49:09.067Z,96733.00
2018-10-11T00:51:38.815Z,96728.00
2018-10-11T00:54:08.979Z,96727.00
2018-10-11T00:56:39.291Z,96729.00
2018-10-11T00:59:13.553Z,96726.00
2018-10-11T01:01:43.211Z,96724.00
2018-10-11T01:04:13.246Z,96723.00
2018-10-11T01:06:42.969Z,96731.00
2018-10-11T01:09:13.251Z,96738.00
2018-10-11T01:11:42.886Z,96735.00
2018-10-11T01:14:12.833Z,96737.00
2018-10-11T01:16:42.436Z,96735.00
2018-10-11T01:19:12.103Z,96743.00
2018-10-11T01:21:41.718Z,96735.00
2018-10-11T01:24:11.327Z,96741.00
2018-10-11T01:26:40.948Z,96734.00
2018-10-11T01:29:37.489Z,96731.00
2018-10-11T01:32:07.632Z,96733.00
2018-10-11T01:34:37.266Z,96733.00
2018-10-11T01:37:07.327Z,96729.00
2018-10-11T01:39:36.948Z,96725.00
2018-10-11T01:42:06.858Z,96726.00
2018-10-11T01:44:36.458Z,96719.00
2018-10-11T01:47:06.311Z,96721.00
2018-10-11T01:49:43.346Z,96720.00
2018-10-11T01:52:12.891Z,96726.00
2018-10-11T01:54:42.583Z,96705.00
2018-10-11T01:57:12.631Z,96710.00
2018-10-11T01:59:42.408Z,96706.00
2018-10-11T02:02:12.763Z,96705.00
2018-10-11T02:04:42.350Z,96709.00
2018-10-11T02:07:11.966Z,96711.00
2018-10-11T02:09:41.563Z,96705.00
2018-10-11T02:12:11.180Z,96709.00
2018-10-11T02:15:06.690Z,96712.00
2018-10-11T02:17:36.386Z,96698.00
2018-10-11T02:20:06.007Z,96701.00
2018-10-11T02:22:35.652Z,96705.00
2018-10-11T02:25:05.391Z,96701.00
2018-10-11T02:27:35.099Z,96697.00
2018-10-11T02:30:04.836Z,96697.00
2018-10-11T02:32:47.987Z,96692.00
2018-10-11T02:35:17.661Z,96697.00
2018-10-11T02:37:47.451Z,96698.00
2018-10-11T02:40:17.051Z,96705.00
2018-10-11T02:42:46.690Z,96706.00
2018-10-11T02:45:16.330Z,96704.00
2018-10-11T02:47:45.914Z,96699.00
2018-10-11T02:50:15.590Z,96702.00
2018-10-11T02:53:09.397Z,96701.00
2018-10-11T02:55:39.300Z,96702.00
2018-10-11T02:58:25.907Z,96696.00
2018-10-11T03:00:55.584Z,96693.00
2018-10-11T03:03:30.591Z,96690.00
2018-10-11T03:06:02.628Z,96696.00
2018-10-11T03:08:32.660Z,96702.00
2018-10-11T03:11:02.618Z,96697.00
2018-10-11T03:13:32.343Z,96693.00
2018-10-11T03:16:02.215Z,96691.00
2018-10-11T03:18:31.891Z,96692.00
2018-10-11T03:21:01.642Z,96690.00
2018-10-11T03:23:31.291Z,96694.00
2018-10-11T03:26:00.951Z,96689.00
2018-10-11T03:28:30.510Z,96686.00
2018-10-11T03:31:00.224Z,96693.00
2018-10-11T03:33:29.763Z,96683.00
2018-10-11T03:35:59.365Z,96685.00
2018-10-11T03:38:28.994Z,96687.00
2018-10-11T03:40:58.611Z,96690.00
2018-10-11T03:43:28.226Z,96692.00
2018-10-11T03:45:57.858Z,96691.00
2018-10-11T03:48:27.442Z,96694.00
2018-10-11T03:50:57.134Z,96691.00
2018-10-11T03:53:26.799Z,96704.00
2018-10-11T03:55:56.466Z,96701.00
2018-10-11T03:58:26.214Z,96705.00
2018-10-11T04:00:55.934Z,96700.00
2018-10-11T04:03:25.578Z,96696.00
2018-10-11T04:05:55.247Z,96696.00
2018-10-11T04:08:25.179Z,96693.00
2018-10-11T04:10:55.198Z,96688.00
2018-10-11T04:13:24.934Z,96686.00
2018-10-11T04:15:54.586Z,96687.00
2018-10-11T04:18:24.107Z,96693.00
2018-10-11T04:20:53.691Z,96693.00
2018-10-11T04:23:31.386Z,96696.00
2018-10-11T04:26:01.616Z,96703.00
2018-10-11T04:28:31.226Z,96703.00
2018-10-11T04:31:01.098Z,96701.00
2018-10-11T04:39:43.253Z,96701.00
2018-10-11T04:42:12.852Z,96706.00
2018-10-11T04:44:42.479Z,96705.00
2018-10-11T04:47:12.095Z,96715.00
2018-10-11T04:49:41.690Z,96710.00
2018-10-11T04:52:11.360Z,96703.00
2018-10-11T04:54:41.091Z,96707.00
2018-10-11T04:57:11.915Z,96712.00
2018-10-11T04:59:58.922Z,96715.00
2018-10-11T05:02:28.554Z,96722.00
2018-10-11T05:05:00.143Z,96711.00
2018-10-11T05:07:33.642Z,96713.00
2018-10-11T05:10:03.258Z,96721.00
2018-10-11T05:12:33.007Z,96725.00
2018-10-11T05:15:02.854Z,96713.00
2018-10-11T05:17:33.160Z,96715.00
2018-10-11T05:20:02.848Z,96720.00
2018-10-11T05:22:32.490Z,96721.00
2018-10-11T05:25:02.162Z,96720.00
2018-10-11T05:27:31.739Z,96726.00
2018-10-11T05:30:01.319Z,96726.00
2018-10-11T05:32:31.434Z,96723.00
2018-10-11T05:35:01.112Z,96730.00
2018-10-11T05:37:54.266Z,96735.00
2018-10-11T05:40:23.828Z,96731.00
2018-10-11T05:42:53.479Z,96733.00
2018-10-11T05:45:25.650Z,96738.00
2018-10-11T05:47:55.157Z,96739.00
2018-10-11T05:50:24.632Z,96744.00
2018-10-11T05:52:53.938Z,96753.00
2018-10-11T05:55:30.178Z,96757.00
2018-10-11T05:57:59.735Z,96750.00
2018-10-11T06:00:29.403Z,96753.00
2018-10-11T06:03:04.331Z,96761.00
2018-10-11T06:05:34.006Z,96762.00
2018-10-11T06:08:04.333Z,96758.00
2018-10-11T06:10:38.535Z,96760.00
2018-10-11T06:13:09.174Z,96764.00
2018-10-11T06:15:39.503Z,96767.00
2018-10-11T06:18:09.710Z,96760.00
2018-10-11T06:20:39.433Z,96765.00
2018-10-11T06:23:09.167Z,96762.00
2018-10-11T06:25:38.810Z,96771.00
2018-10-11T06:28:09.137Z,96782.00
2018-10-11T06:30:43.749Z,96769.00
2018-10-11T06:33:13.599Z,96777.00
2018-10-11T06:35:43.400Z,96776.00
2018-10-11T06:38:13.066Z,96773.00
2018-10-11T06:40:42.777Z,96779.00
2018-10-11T06:43:12.551Z,96795.00
2018-10-11T06:45:42.770Z,96782.00
2018-10-11T06:48:12.427Z,96784.00
2018-10-11T06:50:44.006Z,96782.00
2018-10-11T06:53:13.700Z,96788.00
2018-10-11T06:55:43.370Z,96784.00
2018-10-11T06:58:13.071Z,96786.00
2018-10-11T07:00:43.878Z,96795.00
2018-10-11T07:03:13.591Z,96797.00
2018-10-11T07:05:43.250Z,96790.00
2018-10-11T07:08:12.903Z,96795.00
2018-10-11T07:10:42.571Z,96793.00
2018-10-11T07:13:12.303Z,96797.00
2018-10-11T07:15:48.175Z,96804.00
2018-10-11T07:18:17.952Z,96806.00
2018-10-11T07:20:47.533Z,96809.00
2018-10-11T07:23:17.346Z,96811.00
2018-10-11T07:25:47.209Z,96820.00
2018-10-11T07:28:16.893Z,96818.00
2018-10-11T07:30:46.623Z,96820.00
2018-10-11T07:33:16.254Z,96822.00
2018-10-11T07:35:45.926Z,96826.00
2018-10-11T07:38:15.579Z,96825.00
2018-10-11T07:40:45.386Z,96828.00
2018-10-11T07:43:14.999Z,96831.00
2018-10-11T07:45:44.668Z,96830.00
2018-10-11T07:48:14.340Z,96836.00
2018-10-11T07:50:44.017Z,96830.00
2018-10-11T07:53:13.662Z,96838.00
2018-10-11T07:55:43.335Z,96839.00
2018-10-11T07:58:13.241Z,96838.00
2018-10-11T08:00:43.051Z,96849.00
2018-10-11T08:03:12.805Z,96853.00
2018-10-11T08:05:42.442Z,96850.00
2018-10-11T08:08:12.175Z,96857.00
2018-10-11T08:10:42.129Z,96859.00
2018-10-11T08:13:11.914Z,96850.00
2018-10-11T08:15:41.665Z,96852.00
2018-10-11T08:18:11.311Z,96862.00
2018-10-11T08:20:41.006Z,96855.00
2018-10-11T08:23:10.531Z,96860.00
2018-10-11T08:25:40.429Z,96875.00
2018-10-11T08:28:09.731Z,96878.00
2018-10-11T08:30:39.403Z,96875.00
2018-10-11T08:33:09.029Z,96870.00
2018-10-11T08:35:38.654Z,96873.00
2018-10-11T08:38:08.575Z,96876.00
2018-10-11T08:40:38.051Z,96880.00
2018-10-11T08:43:18.421Z,96880.00
2018-10-11T08:45:48.154Z,96883.00
2018-10-11T08:48:17.770Z,96893.00
2018-10-11T08:50:47.479Z,96895.00
2018-10-11T08:53:17.142Z,96894.00
2018-10-11T08:55:46.841Z,96894.00
2018-10-11T08:58:16.586Z,96891.00
2018-10-11T09:00:46.610Z,96897.00
2018-10-11T09:03:16.352Z,96904.00
2018-10-11T09:05:46.002Z,96911.00
2018-10-11T09:08:15.672Z,96908.00
2018-10-11T09:10:45.286Z,96912.00
2018-10-11T09:13:15.100Z,96911.00
2018-10-11T09:15:44.691Z,96904.00
2018-10-11T09:18:14.392Z,96911.00
2018-10-11T09:20:44.065Z,96911.00
2018-10-11T09:23:13.772Z,96911.00
2018-10-11T09:25:43.494Z,96916.00
2018-10-11T09:28:13.483Z,96914.00
2018-10-11T09:30:43.198Z,96907.00
2018-10-11T09:33:12.993Z,96914.00
2018-10-11T09:35:42.683Z,96911.00
2018-10-11T09:38:12.383Z,96910.00
2018-10-11T09:40:41.960Z,96921.00
2018-10-11T09:43:11.721Z,96931.00
2018-10-11T09:45:41.382Z,96922.00
2018-10-11T09:48:11.067Z,96922.00
2018-10-11T09:50:40.754Z,96919.00
2018-10-11T09:53:10.405Z,96919.00
2018-10-11T09:55:40.034Z,96918.00
2018-10-11T09:58:09.931Z,96922.00
2018-10-11T10:00:44.928Z,96920.00
2018-10-11T10:03:14.816Z,96913.00
2018-10-11T10:05:44.513Z,96907.00
2018-10-11T10:08:14.232Z,96913.00
2018-10-11T10:10:44.192Z,96916.00
2018-10-11T10:13:13.887Z,96919.00
2018-10-11T10:15:43.825Z,96923.00
2018-10-11T10:18:13.423Z,96926.00
2018-10-11T10:20:43.096Z,96916.00
2018-10-11T10:23:12.680Z,96914.00
2018-10-11T10:26:07.641Z,96911.00
2018-10-11T10:28:39.307Z,96906.00
2018-10-11T10:31:08.926Z,96907.00
2018-10-11T10:33:38.647Z,96910.00
2018-10-11T10:36:08.694Z,96912.00
2018-10-11T10:38:38.242Z,96906.00
2018-10-11T10:41:07.868Z,96904.00
2018-10-11T10:43:37.526Z,96907.00
2018-10-11T10:46:07.198Z,96907.00
2018-10-11T10:48:36.825Z,96909.00
2018-10-11T10:51:06.508Z,96919.00
2018-10-11T10:53:36.118Z,96916.00
2018-10-11T10:56:05.734Z,96917.00
2018-10-11T10:58:35.811Z,96903.00
2018-10-11T11:01:05.483Z,96909.00
2018-10-11T11:03:35.272Z,96914.00
2018-10-11T11:06:09.315Z,96911.00
2018-10-11T11:08:38.946Z,96903.00
2018-10-11T11:11:08.826Z,96895.00
2018-10-11T11:13:39.042Z,96897.00
2018-10-11T11:16:09.639Z,96896.00
2018-10-11T11:18:39.275Z,96900.00
2018-10-11T11:21:18.935Z,96899.00
2018-10-11T11:23:48.574Z,96897.00
2018-10-11T11:26:18.282Z,96896.00
2018-10-11T11:28:47.907Z,96896.00
2018-10-11T11:31:37.544Z,96889.00
2018-10-11T11:34:07.272Z,96890.00
2018-10-11T11:36:37.146Z,96894.00
2018-10-11T11:39:09.681Z,96888.00
2018-10-11T11:41:40.646Z,96892.00
2018-10-11T11:44:11.691Z,96884.00
2018-10-11T11:46:41.345Z,96888.00
2018-10-11T11:49:10.981Z,96886.00
2018-10-11T11:51:40.550Z,96885.00
2018-10-11T11:54:19.818Z,96892.00
2018-10-11T11:56:50.342Z,96888.00
2018-10-11T11:59:20.008Z,96888.00
2018-10-11T12:01:49.852Z,96890.00
2018-10-11T12:04:19.552Z,96892.00
2018-10-11T12:06:49.266Z,96891.00
2018-10-11T12:09:18.914Z,96887.00
2018-10-11T12:11:48.627Z,96883.00
2018-10-11T12:14:18.420Z,96889.00
2018-10-11T12:16:48.220Z,96891.00
2018-10-11T12:19:18.269Z,96886.00
2018-10-11T12:21:49.714Z,96890.00
2018-10-11T12:24:19.394Z,96891.00
2018-10-11T12:26:48.983Z,96891.00
2018-10-11T12:29:18.642Z,96896.00
2018-10-11T12:32:13.344Z,96890.00
2018-10-11T12:34:43.201Z,96886.00
2018-10-11T12:37:13.040Z,96885.00
2018-10-11T12:39:42.731Z,96891.00
2018-10-11T12:42:14.313Z,96890.00
2018-10-11T12:44:44.083Z,96892.00
2018-10-11T12:47:13.847Z,96886.00
2018-10-11T12:49:46.616Z,96888.00
2018-10-11T12:52:13.796Z,96886.00
2018-10-11T12:54:44.223Z,96885.00
2018-10-11T12:57:17.170Z,96884.00
2018-10-11T12:59:44.302Z,96885.00
2018-10-11T13:02:14.829Z,96885.00
2018-10-11T13:04:44.565Z,96888.00
2018-10-11T13:07:14.244Z,96892.00
2018-10-11T13:09:45.721Z,96887.00
2018-10-11T13:12:15.607Z,96888.00
2018-10-11T13:14:45.271Z,96890.00
2018-10-11T13:17:15.027Z,96883.00
2018-10-11T13:19:44.974Z,96893.00
2018-10-11T13:22:14.782Z,96899.00
2018-10-11T13:24:54.374Z,96894.00
2018-10-11T13:27:24.039Z,96899.00
2018-10-11T13:29:53.780Z,96892.00
2018-10-11T13:32:23.443Z,96887.00
2018-10-11T13:34:53.391Z,96884.00
2018-10-11T13:37:22.931Z,96885.00
2018-10-11T13:39:56.190Z,96884.00
2018-10-11T13:42:22.271Z,96884.00
2018-10-11T13:44:52.131Z,96886.00
2018-10-11T13:47:21.843Z,96884.00
2018-10-11T13:49:51.661Z,96883.00
2018-10-11T13:52:22.512Z,96881.00
2018-10-11T13:54:50.998Z,96880.00
2018-10-11T13:57:24.079Z,96883.00
2018-10-11T13:59:50.644Z,96884.00
2018-10-11T14:02:20.411Z,96885.00
2018-10-11T14:04:50.156Z,96880.00
2018-10-11T14:07:19.855Z,96886.00
2018-10-11T14:09:51.194Z,96888.00
2018-10-11T14:12:20.890Z,96886.00
2018-10-11T14:14:50.932Z,96891.00
2018-10-11T14:17:42.757Z,96888.00
2018-10-11T14:20:14.849Z,96890.00
2018-10-11T14:22:44.970Z,96889.00
2018-10-11T14:25:19.111Z,96888.00
2018-10-11T14:27:49.528Z,96892.00
2018-10-11T14:30:20.012Z,96884.00
2018-10-11T14:32:49.737Z,96883.00
2018-10-11T14:35:19.405Z,96889.00
2018-10-11T14:37:50.711Z,96886.00
2018-10-11T14:40:24.403Z,96878.00
2018-10-11T14:43:11.799Z,96877.00
2018-10-11T14:45:43.082Z,96881.00
2018-10-11T14:48:13.535Z,96878.00
2018-10-11T14:50:43.502Z,96878.00
2018-10-11T14:53:13.339Z,96883.00
2018-10-11T14:55:43.374Z,96886.00
2018-10-11T14:58:13.030Z,96884.00
2018-10-11T15:00:44.518Z,96890.00
2018-10-11T15:03:14.348Z,96895.00
2018-10-11T15:05:44.135Z,96894.00
2018-10-11T15:08:14.127Z,96898.00
2018-10-11T15:10:43.944Z,96901.00
2018-10-11T15:13:13.802Z,96904.00
2018-10-11T15:15:43.499Z,96901.00
2018-10-11T15:18:13.522Z,96900.00
2018-10-11T15:20:43.248Z,96898.00
2018-10-11T15:23:13.066Z,96905.00
2018-10-11T15:25:43.103Z,96904.00
2018-10-11T15:28:12.983Z,96903.00
2018-10-11T15:30:42.549Z,96902.00
2018-10-11T15:33:12.298Z,96910.00
2018-10-11T15:35:41.963Z,96900.00
2018-10-11T15:38:11.700Z,96902.00
2018-10-11T15:40:41.415Z,96901.00
2018-10-11T15:43:12.493Z,96902.00
2018-10-11T15:45:42.186Z,96898.00
2018-10-11T15:48:11.783Z,96902.00
2018-10-11T15:50:41.651Z,96909.00
2018-10-11T15:53:12.000Z,96906.00
2018-10-11T15:55:41.729Z,96909.00
2018-10-11T15:58:11.469Z,96906.00
2018-10-11T16:00:42.171Z,96905.00
2018-10-11T16:03:11.861Z,96907.00
2018-10-11T16:05:41.906Z,96909.00
2018-10-11T16:08:11.316Z,96910.00
2018-10-11T16:10:40.991Z,96905.00
2018-10-11T16:13:10.664Z,96914.00
2018-10-11T16:15:40.428Z,96915.00
2018-10-11T16:18:10.065Z,96919.00
2018-10-11T16:20:39.695Z,96920.00
2018-10-11T16:23:09.344Z,96919.00
2018-10-11T16:25:38.955Z,96913.00
2018-10-11T16:28:08.640Z,96913.00
2018-10-11T16:30:45.825Z,96912.00
2018-10-11T16:33:16.514Z,96917.00
2018-10-11T16:35:51.802Z,96918.00
2018-10-11T16:38:23.603Z,96920.00
2018-10-11T16:41:11.064Z,96925.00
2018-10-11T16:43:45.430Z,96918.00
2018-10-11T16:46:15.139Z,96907.00
2018-10-11T16:48:46.077Z,96901.00
2018-10-11T16:51:18.003Z,96909.00
2018-10-11T16:53:48.277Z,96917.00
2018-10-11T16:56:19.054Z,96921.00
2018-10-11T16:58:48.790Z,96933.00
2018-10-11T17:01:18.514Z,96939.00
2018-10-11T17:03:48.923Z,96945.00
2018-10-11T17:06:19.370Z,96939.00
2018-10-11T17:08:49.263Z,96942.00
2018-10-11T17:11:18.974Z,96949.00
2018-10-11T17:13:48.705Z,96952.00
2018-10-11T17:16:18.330Z,96949.00
2018-10-11T17:18:48.280Z,96949.00
2018-10-11T17:21:18.478Z,96955.00
2018-10-11T17:23:48.112Z,96959.00
2018-10-11T17:26:18.059Z,96966.00
2018-10-11T17:28:48.310Z,96969.00
2018-10-11T17:31:19.454Z,96971.00
2018-10-11T17:33:49.662Z,96969.00
2018-10-11T17:36:20.374Z,96975.00
2018-10-11T17:38:50.149Z,96978.00
2018-10-11T17:41:19.861Z,96979.00
2018-10-11T17:43:49.680Z,96982.00
2018-10-11T17:46:19.654Z,96982.00
2018-10-11T17:48:51.310Z,96976.00
2018-10-11T17:51:26.449Z,96977.00
2018-10-11T17:53:56.500Z,96977.00
2018-10-11T17:56:26.171Z,96984.00
2018-10-11T17:59:03.095Z,96980.00
2018-10-11T18:01:33.239Z,96991.00
2018-10-11T18:04:05.187Z,96990.00
2018-10-11T18:06:37.064Z,96993.00
2018-10-11T18:09:14.027Z,96992.00
2018-10-11T18:11:44.643Z,96999.00
2018-10-11T18:14:16.816Z,97001.00
2018-10-11T18:16:47.583Z,97003.00
2018-10-11T18:19:18.426Z,97002.00
2018-10-11T18:21:48.393Z,97011.00
2018-10-11T18:24:18.443Z,97011.00
2018-10-11T18:26:48.438Z,97016.00
2018-10-11T18:29:21.299Z,97016.00
2018-10-11T18:31:54.935Z,97017.00
2018-10-11T18:34:25.535Z,97014.00
2018-10-11T18:36:57.063Z,97013.00
2018-10-11T18:39:29.228Z,97018.00
2018-10-11T18:42:11.989Z,97019.00
2018-10-11T18:44:43.005Z,97034.00
2018-10-11T18:47:15.038Z,97033.00
2018-10-11T18:49:46.491Z,97026.00
2018-10-11T18:52:17.067Z,97022.00
2018-10-11T18:54:51.321Z,97020.00
2018-10-11T18:57:23.076Z,97020.00
2018-10-11T18:59:53.413Z,97030.00
2018-10-11T19:02:24.208Z,97031.00
2018-10-11T19:04:54.291Z,97025.00
2018-10-11T19:07:24.988Z,97027.00
2018-10-11T19:09:54.975Z,97037.00
2018-10-11T19:12:32.456Z,97039.00
2018-10-11T19:15:18.859Z,97040.00
2018-10-11T19:17:51.459Z,97050.00
2018-10-11T19:20:21.563Z,97056.00
2018-10-11T19:22:58.796Z,97056.00
2018-10-11T19:25:36.866Z,97057.00
2018-10-11T19:28:06.731Z,97061.00
2018-10-11T19:30:36.531Z,97064.00
2018-10-11T19:33:09.658Z,97065.00
2018-10-11T19:35:39.347Z,97072.00
2018-10-11T19:38:09.392Z,97074.00
2018-10-11T19:40:39.149Z,97070.00
2018-10-11T19:43:09.852Z,97075.00
2018-10-11T19:45:40.040Z,97076.00
2018-10-11T19:48:22.476Z,97081.00
2018-10-11T19:50:52.638Z,97091.00
2018-10-11T19:53:22.494Z,97090.00
2018-10-11T19:55:52.182Z,97090.00
2018-10-11T19:58:23.917Z,97097.00
2018-10-11T20:00:54.534Z,97094.00
2018-10-11T20:03:26.315Z,97098.00
2018-10-11T20:05:56.092Z,97095.00
2018-10-11T20:08:27.401Z,97099.00
2018-10-11T20:11:00.796Z,97102.00
2018-10-11T20:13:31.603Z,97105.00
2018-10-11T20:16:02.508Z,97109.00
2018-10-11T20:18:33.753Z,97115.00
2018-10-11T20:21:07.843Z,97119.00
2018-10-11T20:23:42.142Z,97127.00
2018-10-11T20:26:19.426Z,97130.00
2018-10-11T20:28:50.655Z,97133.00
2018-10-11T20:31:20.727Z,97132.00
2018-10-11T20:33:57.755Z,97137.00
2018-10-11T20:36:28.074Z,97140.00
2018-10-11T20:39:00.223Z,97143.00
2018-10-11T20:41:30.262Z,97145.00
2018-10-11T20:44:00.009Z,97153.00
2018-10-11T20:46:29.824Z,97158.00
2018-10-11T20:49:02.853Z,97161.00
2018-10-11T20:51:32.961Z,97162.00
2018-10-11T20:54:03.780Z,97165.00
2018-10-11T20:56:33.666Z,97171.00
2018-10-11T20:59:07.974Z,97176.00
2018-10-11T21:01:37.934Z,97173.00
2018-10-11T21:04:07.567Z,97177.00
2018-10-11T21:06:44.598Z,97184.00
2018-10-11T21:09:14.721Z,97182.00
2018-10-11T21:11:45.479Z,97188.00
2018-10-11T21:14:17.731Z,97194.00
2018-10-11T21:16:47.900Z,97195.00
2018-10-11T21:19:38.490Z,97200.00
2018-10-11T21:22:08.787Z,97210.00
2018-10-11T21:24:56.659Z,97214.00
2018-10-11T21:27:36.790Z,97221.00
2018-10-11T21:33:18.324Z,97226.00
2018-10-11T21:35:48.996Z,97226.00
2018-10-11T21:38:19.018Z,97230.00
2018-10-11T21:40:48.933Z,97235.00
2018-10-11T21:43:21.006Z,97238.00
2018-10-11T21:45:50.987Z,97233.00
2018-10-11T21:48:21.220Z,97233.00
2018-10-11T21:50:51.238Z,97239.00
2018-10-11T21:53:21.468Z,97238.00
2018-10-11T21:55:52.877Z,97246.00
2018-10-11T21:58:27.978Z,97250.00
2018-10-11T22:01:28.496Z,97257.00
2018-10-11T22:03:58.246Z,97262.00
2018-10-11T22:06:29.488Z,97262.00
2018-10-11T22:08:59.288Z,97262.00
2018-10-11T22:11:29.689Z,97261.00
2018-10-11T22:13:59.523Z,97255.00
2018-10-11T22:16:39.795Z,97254.00
2018-10-11T22:19:10.559Z,97255.00
2018-10-11T22:21:40.491Z,97267.00
2018-10-11T22:24:10.351Z,97271.00
2018-10-11T22:26:40.336Z,97271.00
2018-10-11T22:29:10.326Z,97278.00
2018-10-11T22:31:40.070Z,97289.00
2018-10-11T22:34:09.816Z,97287.00
2018-10-11T22:36:44.360Z,97297.00
2018-10-11T22:39:14.102Z,97295.00
2018-10-11T22:41:43.927Z,97302.00
2018-10-11T22:44:13.724Z,97304.00
2018-10-11T22:46:43.807Z,97308.00
2018-10-11T22:49:13.446Z,97308.00
2018-10-11T22:51:43.226Z,97312.00
2018-10-11T22:54:13.024Z,97309.00
2018-10-11T22:56:43.096Z,97313.00
2018-10-11T22:59:12.774Z,97311.00
2018-10-11T23:02:10.954Z,97315.00
2018-10-11T23:04:40.894Z,97319.00
2018-10-11T23:07:11.096Z,97318.00
2018-10-11T23:12:46.972Z,97328.00
2018-10-11T23:15:16.626Z,97327.00
2018-10-11T23:17:46.399Z,97323.00
2018-10-11T23:20:41.922Z,97330.00
2018-10-11T23:23:11.594Z,97325.00
2018-10-11T23:25:41.326Z,97323.00
2018-10-11T23:31:12.287Z,97334.00
2018-10-11T23:33:42.619Z,97339.00
2018-10-11T23:36:12.226Z,97340.00
2018-10-11T23:38:42.066Z,97339.00
2018-10-11T23:41:11.666Z,97342.00
2018-10-11T23:43:41.375Z,97343.00
2018-10-11T23:46:10.980Z,97346.00
2018-10-11T23:48:40.742Z,97345.00
2018-10-11T23:51:10.365Z,97353.00
2018-10-11T23:53:40.021Z,97359.00
2018-10-11T23:56:09.615Z,97363.00
2018-10-11T23:58:39.278Z,97366.00
